Historique des mesures à Cassis (13260), France
Quotidien Résumé Mars 25, 2021 Unités:  Métrique/US    US   Métrique
Quotidien Hebdomadaire Mensuel Annuel
  Maximum: Minimum: Moyenne:
Température: 82.6 °F /  28.1 °C 65.7 °F /  18.7 °C 75.2 °F /  24 °C
Point de rosée: 57.6 °F /  14.2 °C 46.6 °F /  8.1 °C 53.1 °F /  11.7 °C
Humidité: 67% 29% 48%
Vitesse du vent: 23.5mph /  37.8km/h - 11mph /  17.7km/h
Rafales: 28.2mph /  45.4km/h - -
Vent- - WNW
Pression: 30 in /  1015.2 hPa 29.9 in /  1011.1 hPa -
Précipitations: 0 in /  0.0 mm    
Historical Graphs
 
 
Mesures pour : Mars 25, 2021
Heure Temperature Point de rosée Pression Vent Vitesse du vent Rafales Humidité Pluie (par heure)
00:11 73 °F /  22.8 °C 52.7 °F /  11.5 °C 30in /  1015.0hPa WNW 15.7mph /  25.2km/h 23.1mph /  37.1km/h 49% 0in /  0.0mm
01:11 70.9 °F /  21.6 °C 55.4 °F /  13 °C 30in /  1015.1hPa West 8.1mph /  13km/h 14.8mph /  23.8km/h 58% 0in /  0.0mm
02:11 69.4 °F /  20.8 °C 55 °F /  12.8 °C 30in /  1015.2hPa West 5.2mph /  8.3km/h 16.3mph /  26.3km/h 60% 0in /  0.0mm
03:11 68 °F /  20 °C 54.9 °F /  12.7 °C 30in /  1014.9hPa West 15.7mph /  25.2km/h 19mph /  30.6km/h 63% 0in /  0.0mm
04:11 67.3 °F /  19.6 °C 54.7 °F /  12.6 °C 30in /  1014.4hPa West 7.8mph /  12.6km/h 17.5mph /  28.1km/h 64% 0in /  0.0mm
05:11 65.8 °F /  18.8 °C 54.5 °F /  12.5 °C 29.9in /  1014.0hPa WSW 19.4mph /  31.3km/h 19.7mph /  31.7km/h 67% 0in /  0.0mm
06:11 65.7 °F /  18.7 °C 54 °F /  12.2 °C 29.9in /  1014.0hPa WNW 3.6mph /  5.8km/h 7.4mph /  11.9km/h 66% 0in /  0.0mm
07:11 66 °F /  18.9 °C 53.4 °F /  11.9 °C 29.9in /  1013.5hPa NW 8.3mph /  13.3km/h 15.9mph /  25.6km/h 64% 0in /  0.0mm
08:11 79.3 °F /  26.3 °C 57.4 °F /  14.1 °C 29.9in /  1013.8hPa WNW 6.5mph /  10.4km/h 12.7mph /  20.5km/h 47% 0in /  0.0mm
09:10 70.3 °F /  21.3 °C 54 °F /  12.2 °C 29.9in /  1013.6hPa WSW 9.6mph /  15.5km/h 17.9mph /  28.8km/h 56% 0in /  0.0mm
10:11 73.6 °F /  23.1 °C 54.9 °F /  12.7 °C 29.9in /  1013.7hPa WNW 10.7mph /  17.3km/h 17.9mph /  28.8km/h 52% 0in /  0.0mm
11:11 77.5 °F /  25.3 °C 54.5 °F /  12.5 °C 29.9in /  1013.3hPa WSW 18.8mph /  30.2km/h 18.8mph /  30.2km/h 45% 0in /  0.0mm
12:11 78.4 °F /  25.8 °C 53.4 °F /  11.9 °C 29.9in /  1013.1hPa NW 13.2mph /  21.2km/h 21.5mph /  34.6km/h 42% 0in /  0.0mm
13:11 79.7 °F /  26.5 °C 53.4 °F /  11.9 °C 29.9in /  1012.8hPa West 10.5mph /  16.9km/h 20.6mph /  33.1km/h 40% 0in /  0.0mm
14:11 81.5 °F /  27.5 °C 52.5 °F /  11.4 °C 29.9in /  1012.9hPa West 8.9mph /  14.4km/h 19mph /  30.6km/h 37% 0in /  0.0mm
15:11 81.9 °F /  27.7 °C 50.5 °F /  10.3 °C 29.9in /  1012.4hPa NW 10.7mph /  17.3km/h 25.7mph /  41.4km/h 34% 0in /  0.0mm
16:11 82.2 °F /  27.9 °C 50 °F /  10 °C 29.9in /  1012.1hPa WNW 10.5mph /  16.9km/h 18.3mph /  29.5km/h 33% 0in /  0.0mm
17:11 82.6 °F /  28.1 °C 48.7 °F /  9.3 °C 29.9in /  1011.9hPa West 11.9mph /  19.1km/h 23.7mph /  38.2km/h 31% 0in /  0.0mm
18:11 82.4 °F /  28 °C 46.8 °F /  8.2 °C 29.9in /  1011.1hPa NW 23.5mph /  37.8km/h 28.2mph /  45.4km/h 29% 0in /  0.0mm
19:11 82 °F /  27.8 °C 46.6 °F /  8.1 °C 29.9in /  1011.1hPa West 17.6mph /  28.4km/h 20.4mph /  32.8km/h 29% 0in /  0.0mm
20:11 81.1 °F /  27.3 °C 48.4 °F /  9.1 °C 29.9in /  1011.5hPa NNW 11.2mph /  18km/h 13.4mph /  21.6km/h 32% 0in /  0.0mm
21:11 77.9 °F /  25.5 °C 55.4 °F /  13 °C 29.9in /  1011.9hPa WNW 5.3mph /  8.6km/h 12.7mph /  20.5km/h 46% 0in /  0.0mm
22:11 73.8 °F /  23.2 °C 57.6 °F /  14.2 °C 29.9in /  1012.5hPa WSW 3.8mph /  6.1km/h 6mph /  9.7km/h 57% 0in /  0.0mm
23:11 72.3 °F /  22.4 °C 54.1 °F /  12.3 °C 29.9in /  1012.8hPa WNW 6.7mph /  10.8km/h 10.5mph /  16.9km/h 53% 0in /  0.0mm
Observations météo à CASSIS
WU-History script by Weather Underground - 2 mb